Time;durP1;ratioP1;P1;durP2;ratioP2;P2;SDS_P1;SDS_P2;PMS_P1;PMS_P2;Temp;Humidity;BMP_temperature;BMP_pressure;BME280_temperature;BME280_humidity;BME280_pressure;Samples;Min_cycle;Max_cycle;Signal;HPM_P1;HPM_P2
2021/12/08 00:02:12;;;;;;;5.35;3.70;;;;;;;12.78;72.39;99982.41;5055923;28;20028;-93
2021/12/08 00:04:38;;;;;;;6.85;3.78;;;;;;;12.89;72.34;100004.63;5038105;28;20054;-90
2021/12/08 00:07:06;;;;;;;6.13;3.80;;;;;;;12.81;72.55;99970.31;5053421;28;20073;-91
2021/12/08 00:19:15;;;;;;;4.80;3.47;;;;;;;12.83;72.49;100004.44;5036314;28;20041;-91
2021/12/08 00:25:09;;;;;;;5.85;4.03;;;;;;;12.59;72.82;99994.03;5037501;28;20041;-92
2021/12/08 00:27:41;;;;;;;5.78;3.78;;;;;;;12.73;72.46;99995.38;5053969;28;20094;-92
2021/12/08 00:30:21;;;;;;;5.05;3.35;;;;;;;12.92;72.08;100023.06;5035819;28;20059;-93
2021/12/08 00:32:54;;;;;;;4.78;3.60;;;;;;;12.77;72.29;100017.34;5062453;28;20120;-91
2021/12/08 00:35:24;;;;;;;4.55;3.38;;;;;;;12.86;72.24;100038.59;5043572;28;20618;-94
2021/12/08 00:38:14;;;;;;;4.72;3.38;;;;;;;12.80;72.73;100035.75;5021185;28;20450;-94
2021/12/08 00:41:25;;;;;;;4.22;3.30;;;;;;;12.80;72.40;100043.63;5050839;28;20083;-92
2021/12/08 00:43:59;;;;;;;3.88;3.10;;;;;;;12.61;72.54;100013.28;5054052;28;20084;-93
2021/12/08 00:46:43;;;;;;;4.65;3.25;;;;;;;12.55;72.74;100018.31;5034369;28;20025;-93
2021/12/08 00:49:13;;;;;;;4.35;3.40;;;;;;;12.66;72.21;100021.31;5035127;28;20033;-93
2021/12/08 00:51:42;;;;;;;4.13;3.05;;;;;;;12.90;72.06;100045.72;5053642;28;20025;-93
2021/12/08 00:54:09;;;;;;;4.00;3.03;;;;;;;12.49;72.25;100003.31;5053674;28;20029;-93
2021/12/08 00:59:56;;;;;;;3.28;2.85;;;;;;;12.70;71.85;100015.31;5054931;28;20067;-92
2021/12/08 01:02:29;;;;;;;3.97;3.25;;;;;;;12.74;71.75;100046.03;5037316;28;20489;-93
2021/12/08 01:05:00;;;;;;;3.42;2.75;;;;;;;12.65;71.73;100009.94;5036996;28;20037;-91
2021/12/08 01:07:25;;;;;;;3.85;3.25;;;;;;;12.72;71.72;100040.75;5032105;28;20045;-92
2021/12/08 01:10:33;;;;;;;4.10;2.90;;;;;;;12.79;72.20;100039.22;5037120;28;20513;-92
2021/12/08 01:13:12;;;;;;;4.47;3.13;;;;;;;12.51;72.72;100027.84;5042327;28;20041;-92
2021/12/08 01:15:41;;;;;;;4.43;3.30;;;;;;;12.48;72.17;100008.50;5044736;28;20468;-92
2021/12/08 01:18:12;;;;;;;3.53;2.83;;;;;;;12.58;72.08;100019.31;5033431;28;20497;-93
2021/12/08 01:21:20;;;;;;;3.45;2.72;;;;;;;12.67;72.14;100052.78;5038823;28;20043;-91
2021/12/08 01:24:10;;;;;;;5.53;2.85;;;;;;;12.65;72.41;100057.09;5052286;28;20056;-91
2021/12/08 01:26:46;;;;;;;4.15;2.70;;;;;;;12.73;71.93;100050.38;5054179;28;20048;-91
2021/12/08 01:29:22;;;;;;;3.95;2.80;;;;;;;12.61;72.17;100045.63;5055564;28;20033;-92
2021/12/08 01:31:48;;;;;;;3.15;2.85;;;;;;;12.47;72.18;100012.84;5069883;28;20059;-91
2021/12/08 01:34:31;;;;;;;3.45;2.75;;;;;;;12.54;71.73;100011.31;5036052;28;20098;-92
2021/12/08 01:37:01;;;;;;;4.18;2.85;;;;;;;12.72;71.79;100047.72;5054072;28;20036;-92
2021/12/08 01:39:27;;;;;;;4.18;2.67;;;;;;;12.48;71.85;100024.22;5048494;28;20158;-90
2021/12/08 01:42:15;;;;;;;3.65;2.60;;;;;;;12.33;72.10;99995.78;5036398;28;20123;-93
2021/12/08 01:47:45;;;;;;;4.30;2.70;;;;;;;12.47;71.81;100011.97;5052955;28;20056;-92
2021/12/08 01:50:13;;;;;;;2.95;2.55;;;;;;;12.35;71.98;100002.84;5043074;28;20531;-93
2021/12/08 01:52:51;;;;;;;3.22;2.40;;;;;;;12.68;71.80;100045.81;5034513;28;20049;-93
2021/12/08 01:55:25;;;;;;;3.33;2.70;;;;;;;12.32;72.15;100010.59;5042899;28;20108;-93
2021/12/08 01:58:04;;;;;;;3.42;2.58;;;;;;;12.48;72.61;100039.91;5045732;28;20039;-92
2021/12/08 02:00:48;;;;;;;4.05;2.40;;;;;;;12.56;72.22;100041.06;5047705;28;20421;-92
2021/12/08 02:03:26;;;;;;;4.13;2.60;;;;;;;12.45;71.92;100013.66;5052582;28;20510;-92
2021/12/08 02:05:53;;;;;;;4.50;2.45;;;;;;;12.35;72.19;100012.41;5035785;28;20048;-91
2021/12/08 02:08:31;;;;;;;2.90;2.33;;;;;;;12.63;72.09;100051.78;5035142;28;20037;-93
2021/12/08 02:11:04;;;;;;;3.42;2.55;;;;;;;12.52;72.43;100049.66;5053759;28;20025;-92
2021/12/08 02:13:38;;;;;;;3.40;2.45;;;;;;;12.58;71.62;100050.75;5034864;28;20045;-93
2021/12/08 02:16:29;;;;;;;3.47;2.60;;;;;;;12.49;72.18;100073.09;5036110;28;20029;-92
2021/12/08 02:19:01;;;;;;;2.97;2.33;;;;;;;12.31;72.23;100034.09;5035267;28;20041;-92
2021/12/08 02:21:42;;;;;;;3.35;2.75;;;;;;;12.21;71.81;100006.69;5052212;28;20071;-93
2021/12/08 02:27:32;;;;;;;3.05;2.30;;;;;;;12.49;71.91;100067.88;5035799;28;20032;-93
2021/12/08 02:48:27;;;;;;;2.67;2.17;;;;;;;12.29;72.28;100056.72;5047826;28;20036;-93
2021/12/08 02:51:00;;;;;;;2.55;1.95;;;;;;;12.34;72.21;100070.84;5052437;28;20086;-92
2021/12/08 02:53:33;;;;;;;3.47;2.40;;;;;;;12.32;72.65;100083.91;5043253;28;20022;-93
2021/12/08 02:56:19;;;;;;;2.80;2.20;;;;;;;12.36;72.53;100087.50;5018867;28;20189;-92
2021/12/08 02:59:05;;;;;;;4.00;2.10;;;;;;;12.52;71.83;100088.94;5048656;28;20033;-92
2021/12/08 03:01:31;;;;;;;3.30;2.13;;;;;;;12.39;71.99;100088.50;5034759;28;20044;-92
2021/12/08 03:04:08;;;;;;;3.30;2.00;;;;;;;12.30;72.30;100088.19;5030860;28;20033;-92
2021/12/08 03:06:40;;;;;;;;;;;;;;;12.47;71.86;100107.13;5049487;28;20093;-91
2021/12/08 03:09:10;;;;;;;2.30;1.83;;;;;;;12.40;72.03;100098.16;5055211;28;19923;-92
2021/12/08 03:11:36;;;;;;;2.42;2.00;;;;;;;12.24;72.10;100071.38;5043747;28;20087;-91
2021/12/08 03:14:09;;;;;;;2.55;1.90;;;;;;;12.47;71.59;100090.53;5034546;28;20521;-91
2021/12/08 03:16:40;;;;;;;3.63;2.20;;;;;;;12.29;72.09;100091.63;5038281;28;20596;-90
2021/12/08 03:19:07;;;;;;;2.38;1.85;;;;;;;11.96;72.48;100052.06;5050119;28;20031;-89
2021/12/08 03:21:34;;;;;;;2.05;1.58;;;;;;;12.27;72.43;100106.38;5050134;28;20032;-90
2021/12/08 03:24:14;;;;;;;2.28;1.90;;;;;;;11.81;72.56;100036.66;5050307;28;20048;-88
2021/12/08 03:26:49;;;;;;;2.83;1.77;;;;;;;12.31;72.16;100115.25;5051420;28;20032;-90
2021/12/08 03:29:44;;;;;;;2.75;2.03;;;;;;;12.32;71.71;100119.63;5044148;28;20028;-90
2021/12/08 03:32:08;;;;;;;2.40;2.10;;;;;;;12.26;71.76;100106.34;5044622;28;20064;-90
2021/12/08 03:34:38;;;;;;;2.50;1.90;;;;;;;12.21;72.03;100109.69;5050355;28;20017;-90
2021/12/08 03:37:06;;;;;;;2.33;1.80;;;;;;;12.34;71.66;100129.34;5044113;28;20033;-91
2021/12/08 03:39:42;;;;;;;2.88;1.90;;;;;;;12.10;72.12;100131.94;5034016;28;20128;-92
2021/12/08 03:42:11;;;;;;;2.60;1.90;;;;;;;12.22;71.90;100136.75;5037746;28;20033;-92
2021/12/08 03:44:59;;;;;;;2.17;1.75;;;;;;;12.07;72.23;100123.09;5014799;28;20346;-91
2021/12/08 03:47:29;;;;;;;2.97;1.70;;;;;;;12.01;72.23;100114.16;5028632;28;20407;-93
2021/12/08 03:50:01;;;;;;;2.03;1.73;;;;;;;11.84;71.79;100091.69;5034352;28;20032;-91
2021/12/08 03:52:46;;;;;;;2.92;2.05;;;;;;;12.21;72.40;100164.66;5036697;28;20048;-91
2021/12/08 03:55:44;;;;;;;1.90;1.70;;;;;;;12.18;72.42;100172.38;5045297;28;20060;-93
2021/12/08 03:58:15;;;;;;;2.13;1.70;;;;;;;12.19;72.09;100173.25;5046130;28;20025;-93
2021/12/08 04:00:46;;;;;;;2.00;1.65;;;;;;;12.24;71.93;100171.72;5067496;28;20029;-92
2021/12/08 04:03:51;;;;;;;2.05;1.65;;;;;;;12.27;71.74;100178.78;5066700;28;20044;-93
2021/12/08 04:06:36;;;;;;;3.00;1.63;;;;;;;12.20;71.88;100165.47;5050775;28;20033;-93
2021/12/08 04:09:42;;;;;;;1.88;1.65;;;;;;;12.22;71.47;100199.56;5037920;28;20134;-92
2021/12/08 04:12:17;;;;;;;2.13;1.75;;;;;;;11.82;71.95;100140.44;5036593;28;20044;-93
2021/12/08 04:15:04;;;;;;;2.57;1.57;;;;;;;12.19;72.08;100192.50;5034458;28;20029;-93
2021/12/08 04:17:36;;;;;;;3.35;1.48;;;;;;;12.16;71.86;100197.59;5044156;28;20034;-93
2021/12/08 04:20:28;;;;;;;1.63;1.50;;;;;;;11.87;71.89;100167.66;5050367;28;20025;-94
2021/12/08 04:22:57;;;;;;;2.67;1.75;;;;;;;11.99;71.80;100194.34;5045280;28;20037;-93
2021/12/08 04:25:42;;;;;;;1.70;1.40;;;;;;;12.10;71.79;100199.97;5030428;28;20029;-94
2021/12/08 04:28:12;;;;;;;1.55;1.40;;;;;;;11.36;71.64;100097.66;5040323;28;20519;-95
2021/12/08 04:31:00;;;;;;;2.53;1.50;;;;;;;12.08;71.83;100224.31;5059790;28;20125;-94
2021/12/08 04:33:54;;;;;;;1.98;1.48;;;;;;;12.08;72.24;100234.78;5030885;28;20518;-93
2021/12/08 04:36:25;;;;;;;2.08;1.40;;;;;;;11.96;72.15;100236.09;5033726;28;20029;-94
2021/12/08 04:39:08;;;;;;;1.63;1.42;;;;;;;11.80;71.18;100190.06;5033751;28;20112;-94
2021/12/08 04:41:52;;;;;;;1.60;1.30;;;;;;;12.14;71.48;100277.78;5040008;28;20032;-92
2021/12/08 04:44:38;;;;;;;1.55;1.23;;;;;;;11.94;71.80;100263.03;5038202;28;20017;-92
2021/12/08 04:47:31;;;;;;;1.55;1.33;;;;;;;12.01;71.68;100280.75;5054126;28;20029;-92
2021/12/08 04:50:22;;;;;;;1.60;1.33;;;;;;;11.81;71.44;100243.31;5026526;28;20021;-89
2021/12/08 04:53:12;;;;;;;1.40;1.25;;;;;;;11.95;71.31;100272.66;5056969;28;20028;-92
2021/12/08 05:07:32;;;;;;;2.10;1.60;;;;;;;11.81;72.25;100296.50;5067367;28;20060;-93
2021/12/08 05:10:14;;;;;;;2.08;1.55;;;;;;;12.00;71.52;100324.34;5052896;28;20025;-91
2021/12/08 05:12:40;;;;;;;1.90;1.30;;;;;;;12.05;71.26;100314.06;5036873;28;20490;-90
2021/12/08 05:15:30;;;;;;;1.40;1.30;;;;;;;11.78;71.94;100304.22;5051045;28;20072;-93
2021/12/08 05:18:30;;;;;;;1.73;1.30;;;;;;;12.01;71.70;100323.50;5036819;28;20067;-91
2021/12/08 05:21:18;;;;;;;2.10;1.30;;;;;;;11.93;71.93;100330.16;5065296;28;20122;-92
2021/12/08 05:23:53;;;;;;;1.30;1.20;;;;;;;11.75;71.89;100298.88;5043895;28;20029;-91
2021/12/08 05:27:06;;;;;;;1.50;1.25;;;;;;;12.07;71.29;100333.34;5030478;28;20037;-92
2021/12/08 05:29:42;;;;;;;1.38;1.20;;;;;;;11.77;71.24;100288.47;5053937;28;20033;-91
2021/12/08 05:32:17;;;;;;;1.10;1.00;;;;;;;11.82;71.57;100323.56;5052989;28;20021;-90
2021/12/08 05:34:44;;;;;;;1.50;1.40;;;;;;;11.92;71.28;100330.09;5056646;28;20099;-91
2021/12/08 05:37:13;;;;;;;1.52;1.33;;;;;;;11.98;71.48;100351.25;5036642;28;20092;-90
2021/12/08 05:39:44;;;;;;;1.15;1.02;;;;;;;11.85;71.65;100331.50;5052242;28;20075;-89
2021/12/08 05:42:31;;;;;;;1.67;1.42;;;;;;;11.68;71.26;100293.31;5050403;28;20122;-91
2021/12/08 05:44:58;;;;;;;;;;;;;;;12.02;71.41;100358.41;5039323;28;20033;-88
2021/12/08 05:47:44;;;;;;;1.25;1.10;;;;;;;11.82;71.52;100355.81;5067125;28;19912;-90
2021/12/08 05:50:23;;;;;;;2.25;1.48;;;;;;;11.73;71.51;100334.53;5023194;28;20033;-93
2021/12/08 05:52:54;;;;;;;1.30;1.20;;;;;;;11.93;71.42;100381.59;5032769;28;20025;-93
2021/12/08 05:55:30;;;;;;;1.80;1.20;;;;;;;11.82;71.25;100368.91;5039748;28;20014;-91
2021/12/08 05:57:59;;;;;;;1.30;1.20;;;;;;;11.68;71.87;100351.72;5062516;28;20028;-90
2021/12/08 06:00:47;;;;;;;1.55;1.25;;;;;;;11.74;71.94;100367.69;5038299;28;20029;-91
2021/12/08 06:03:12;;;;;;;1.75;1.40;;;;;;;11.80;71.03;100367.06;5050603;28;20036;-90
2021/12/08 06:05:39;;;;;;;1.63;1.27;;;;;;;11.89;71.28;100393.63;5039562;28;20025;-91
2021/12/08 06:08:20;;;;;;;;;;;;;;;11.88;71.47;100398.78;5039354;28;20499;-89
2021/12/08 06:10:46;;;;;;;1.30;1.20;;;;;;;11.96;71.30;100406.16;5040496;28;19913;-90
2021/12/08 06:13:21;;;;;;;1.42;1.17;;;;;;;11.89;71.80;100409.34;5055469;28;20506;-91
2021/12/08 06:15:53;;;;;;;1.67;1.38;;;;;;;11.60;71.15;100374.06;5032447;28;20100;-92
2021/12/08 06:18:23;;;;;;;1.63;1.40;;;;;;;11.90;71.30;100412.88;5062401;28;20032;-91
2021/12/08 06:20:53;;;;;;;1.38;1.27;;;;;;;11.85;71.86;100428.31;5031168;28;20036;-90
2021/12/08 06:23:27;;;;;;;1.40;1.20;;;;;;;11.82;71.57;100421.22;5047829;28;20052;-92
2021/12/08 06:25:53;;;;;;;1.92;1.38;;;;;;;11.69;71.25;100397.09;5035810;28;20032;-92
2021/12/08 06:28:49;;;;;;;1.38;1.23;;;;;;;11.81;71.56;100429.91;5035333;28;20886;-92
2021/12/08 06:31:17;;;;;;;1.75;1.30;;;;;;;11.78;71.43;100431.50;5031871;28;20038;-89
2021/12/08 06:33:44;;;;;;;1.30;1.20;;;;;;;11.72;71.42;100403.34;5050882;28;20028;-89
2021/12/08 06:36:14;;;;;;;3.90;1.25;;;;;;;11.79;71.65;100428.97;5033763;28;20477;-90
2021/12/08 06:38:55;;;;;;;1.38;1.27;;;;;;;11.73;71.69;100433.91;5043766;28;20044;-94
2021/12/08 06:41:36;;;;;;;1.17;1.08;;;;;;;11.64;71.12;100399.53;5033880;28;20024;-93
2021/12/08 06:44:19;;;;;;;2.10;1.42;;;;;;;11.47;71.66;100395.25;5040167;28;20033;-92
2021/12/08 06:46:49;;;;;;;1.40;1.27;;;;;;;11.74;71.33;100427.84;5028800;28;20037;-91
2021/12/08 06:49:18;;;;;;;1.52;1.30;;;;;;;11.73;71.88;100439.16;5032415;28;20060;-89
2021/12/08 06:51:51;;;;;;;2.42;1.10;;;;;;;11.37;71.52;100381.78;5051057;28;20043;-91
2021/12/08 06:54:30;;;;;;;1.60;1.20;;;;;;;11.59;71.87;100438.53;5034211;28;20025;-91
2021/12/08 06:57:01;;;;;;;1.27;1.17;;;;;;;11.53;71.32;100430.41;5040749;28;20029;-93
2021/12/08 06:59:34;;;;;;;3.03;1.15;;;;;;;11.38;71.62;100420.16;5063114;28;20082;-91
2021/12/08 07:02:12;;;;;;;1.50;1.40;;;;;;;11.57;71.35;100453.25;5033848;28;20025;-91
2021/12/08 07:05:07;;;;;;;2.47;1.02;;;;;;;11.66;71.68;100476.31;5032950;28;20041;-90
2021/12/08 07:07:34;;;;;;;1.33;1.23;;;;;;;11.68;71.47;100486.84;5035051;28;20052;-90
2021/12/08 07:10:27;;;;;;;1.30;1.10;;;;;;;11.65;71.57;100487.63;5023032;28;20402;-91
2021/12/08 07:13:07;;;;;;;1.27;1.15;;;;;;;11.63;71.51;100480.53;5030279;28;20482;-91
2021/12/08 07:15:39;;;;;;;1.58;1.27;;;;;;;11.65;71.61;100502.41;5053146;28;20031;-90
2021/12/08 07:18:17;;;;;;;1.30;1.15;;;;;;;11.62;71.51;100490.09;5049658;28;20410;-91
2021/12/08 07:20:56;;;;;;;1.10;1.00;;;;;;;11.52;71.64;100477.44;5033201;28;20052;-90
2021/12/08 07:23:36;;;;;;;4.68;1.60;;;;;;;11.52;71.03;100485.28;5050161;28;20025;-91
2021/12/08 07:26:17;;;;;;;1.88;1.15;;;;;;;11.05;71.19;100398.63;5049895;28;20025;-91
2021/12/08 07:28:57;;;;;;;1.23;1.13;;;;;;;11.73;70.88;100515.00;5050827;28;20025;-92
2021/12/08 07:31:34;;;;;;;1.55;1.40;;;;;;;11.77;70.79;100524.78;5041266;28;20026;-91
2021/12/08 07:34:04;;;;;;;;;;;;;;;11.66;71.38;100525.13;5032443;28;20599;-90
2021/12/08 07:36:39;;;;;;;3.53;1.67;;;;;;;11.39;69.77;100515.19;5034550;28;19921;-92
2021/12/08 07:39:09;;;;;;;5.47;1.50;;;;;;;11.59;70.85;100535.28;5054578;28;20092;-91
2021/12/08 07:41:40;;;;;;;1.95;1.20;;;;;;;11.51;70.86;100515.72;5050737;28;20057;-88
2021/12/08 07:44:10;;;;;;;1.48;1.35;;;;;;;11.52;70.89;100516.66;5038448;28;20124;-88
2021/12/08 07:46:46;;;;;;;7.88;2.20;;;;;;;11.76;70.78;100550.88;5020142;28;20063;-91
2021/12/08 07:49:33;;;;;;;2.43;1.97;;;;;;;11.70;70.92;100554.09;5030301;28;20023;-91
2021/12/08 07:52:20;;;;;;;4.18;1.63;;;;;;;11.66;71.21;100546.94;5030955;28;20081;-91
2021/12/08 07:54:47;;;;;;;2.53;1.73;;;;;;;11.63;71.11;100564.22;5047372;28;20561;-91
2021/12/08 07:57:18;;;;;;;2.00;1.70;;;;;;;11.68;70.20;100550.50;5013717;28;20411;-92
2021/12/08 07:59:53;;;;;;;2.33;1.63;;;;;;;11.57;70.59;100546.50;5020546;28;20041;-91
2021/12/08 08:02:19;;;;;;;2.47;1.60;;;;;;;11.73;70.36;100563.81;5049972;28;20053;-89
2021/12/08 08:04:47;;;;;;;2.58;1.80;;;;;;;11.57;70.85;100567.44;5046388;28;20033;-89
2021/12/08 08:07:15;;;;;;;2.65;1.80;;;;;;;11.67;70.68;100572.28;5028619;28;20056;-91
2021/12/08 08:09:42;;;;;;;3.58;1.70;;;;;;;11.55;70.40;100556.91;5032217;28;20125;-89
2021/12/08 08:12:18;;;;;;;2.00;1.60;;;;;;;11.51;70.50;100565.41;5064350;28;20056;-91
2021/12/08 08:14:50;;;;;;;2.03;1.70;;;;;;;11.54;70.78;100570.81;5047707;28;20039;-90
2021/12/08 08:17:24;;;;;;;3.38;1.90;;;;;;;11.36;70.55;100570.81;5052480;28;20075;-89
2021/12/08 08:19:50;;;;;;;2.35;1.70;;;;;;;10.89;71.20;100509.34;5050813;28;20056;-90
2021/12/08 08:22:20;;;;;;;3.38;1.90;;;;;;;10.96;70.46;100492.25;5063792;28;20491;-88
2021/12/08 08:24:48;;;;;;;2.58;1.80;;;;;;;11.42;70.83;100606.84;5050719;28;20550;-88
2021/12/08 08:27:16;;;;;;;2.65;1.80;;;;;;;11.01;70.75;100535.19;5064907;28;20078;-88
2021/12/08 08:29:43;;;;;;;4.18;2.03;;;;;;;11.34;71.29;100582.03;5048500;28;20028;-88
2021/12/08 08:32:20;;;;;;;2.20;1.83;;;;;;;11.73;70.86;100618.75;5035372;28;20013;-88
2021/12/08 08:34:49;;;;;;;2.42;1.80;;;;;;;11.32;70.82;100575.84;5038069;28;20025;-90
2021/12/08 08:37:18;;;;;;;2.45;1.80;;;;;;;11.55;70.86;100587.38;5058264;28;20029;-88
2021/12/08 08:39:49;;;;;;;2.20;2.00;;;;;;;11.38;71.11;100573.53;5066642;28;20025;-90
2021/12/08 08:42:20;;;;;;;2.67;2.03;;;;;;;11.71;70.48;100599.47;5037202;28;20036;-90
2021/12/08 08:44:53;;;;;;;2.78;1.88;;;;;;;11.08;71.00;100537.25;5032737;28;20029;-89
2021/12/08 08:47:32;;;;;;;2.13;1.92;;;;;;;11.45;70.38;100565.16;5053328;28;20601;-88
2021/12/08 08:49:58;;;;;;;2.85;1.95;;;;;;;11.21;70.99;100555.31;5036399;28;20399;-87
2021/12/08 08:52:32;;;;;;;;;;;;;;;11.74;70.60;100616.19;5055455;28;20044;-86
2021/12/08 08:55:01;;;;;;;2.67;1.80;;;;;;;11.29;70.65;100566.13;5037319;28;19921;-90
2021/12/08 08:57:34;;;;;;;2.63;2.00;;;;;;;11.37;70.78;100588.31;5034232;28;20076;-89
2021/12/08 09:00:32;;;;;;;2.30;1.80;;;;;;;11.67;70.66;100627.19;5036779;28;20057;-89
2021/12/08 09:03:00;;;;;;;;;;;;;;;11.56;70.82;100631.03;5042990;28;20058;-90
2021/12/08 09:05:40;;;;;;;2.30;1.88;;;;;;;11.63;71.07;100634.84;5041048;28;19964;-88
2021/12/08 09:08:08;;;;;;;2.97;2.22;;;;;;;11.36;70.92;100594.34;5045354;28;20037;-90
2021/12/08 09:11:20;;;;;;;2.15;1.95;;;;;;;11.65;70.68;100627.97;5032823;28;20510;-90
2021/12/08 09:14:08;;;;;;;3.03;1.85;;;;;;;11.48;70.95;100617.59;5049000;28;20040;-93
2021/12/08 09:16:50;;;;;;;3.15;2.10;;;;;;;11.67;70.61;100623.69;5036303;28;20032;-92
2021/12/08 09:19:36;;;;;;;3.38;1.77;;;;;;;11.43;71.09;100603.41;5056776;28;20079;-93
2021/12/08 09:22:31;;;;;;;4.03;2.30;;;;;;;11.66;70.61;100632.34;5035709;28;20021;-91
2021/12/08 09:25:17;;;;;;;4.45;2.58;;;;;;;11.53;71.01;100628.25;5034120;28;20038;-94
2021/12/08 09:27:53;;;;;;;3.13;2.42;;;;;;;11.46;71.09;100639.25;5033814;28;20098;-95
2021/12/08 09:33:52;;;;;;;3.35;2.47;;;;;;;11.62;70.93;100641.78;5044813;28;20517;-84
2021/12/08 09:36:21;;;;;;;3.92;2.42;;;;;;;11.34;71.15;100614.28;5038285;28;20040;-87
2021/12/08 09:38:53;;;;;;;5.00;2.72;;;;;;;11.27;71.06;100604.38;5050572;28;20044;-91
2021/12/08 09:41:42;;;;;;;4.97;2.50;;;;;;;11.50;70.85;100633.34;5016304;28;20030;-92
2021/12/08 09:44:27;;;;;;;4.80;2.90;;;;;;;11.26;70.99;100612.13;5034958;28;20033;-92
2021/12/08 09:46:58;;;;;;;4.85;3.10;;;;;;;11.47;71.15;100631.50;5013581;28;20068;-91
2021/12/08 09:49:34;;;;;;;6.25;3.20;;;;;;;11.48;71.10;100641.13;5036113;28;20017;-91
2021/12/08 09:52:05;;;;;;;3.43;2.80;;;;;;;11.16;71.19;100613.41;5032207;28;20021;-89
2021/12/08 09:54:31;;;;;;;3.78;2.85;;;;;;;11.44;70.69;100627.81;5041776;28;20040;-86
2021/12/08 09:56:59;;;;;;;5.22;3.28;;;;;;;11.51;70.84;100635.13;5036654;28;20036;-87
2021/12/08 09:59:25;;;;;;;4.32;2.90;;;;;;;11.30;70.68;100607.16;5042799;28;20022;-86
2021/12/08 10:01:53;;;;;;;5.78;3.20;;;;;;;11.48;70.69;100628.03;5055811;28;20041;-86
2021/12/08 10:04:19;;;;;;;5.15;3.38;;;;;;;11.20;70.68;100581.38;5033738;28;20035;-86
2021/12/08 10:06:49;;;;;;;4.97;3.28;;;;;;;11.08;71.04;100578.19;5031575;28;20032;-87
2021/12/08 10:09:25;;;;;;;5.00;2.95;;;;;;;10.90;70.95;100552.03;5037252;28;20155;-88
2021/12/08 10:11:54;;;;;;;4.90;2.90;;;;;;;11.15;70.99;100582.88;5041569;28;20143;-86
2021/12/08 10:14:20;;;;;;;6.28;3.60;;;;;;;11.36;71.26;100633.56;5030235;28;20059;-88
2021/12/08 10:16:47;;;;;;;4.78;3.22;;;;;;;10.97;70.94;100557.63;5036609;28;20029;-90
2021/12/08 10:19:17;;;;;;;4.43;2.88;;;;;;;11.22;71.45;100605.88;5051677;28;20037;-91
2021/12/08 10:21:44;;;;;;;6.82;3.42;;;;;;;10.99;71.15;100562.94;5051302;28;20032;-89
2021/12/08 10:24:23;;;;;;;4.90;3.33;;;;;;;11.35;71.40;100636.13;5051059;28;20039;-89
2021/12/08 10:26:51;;;;;;;6.18;3.10;;;;;;;11.29;71.52;100631.50;5050302;28;20417;-88
2021/12/08 10:29:24;;;;;;;4.55;3.05;;;;;;;11.18;71.40;100601.31;5050730;28;20461;-89
2021/12/08 10:31:51;;;;;;;4.07;2.67;;;;;;;11.29;70.81;100615.81;5049783;28;20482;-88
2021/12/08 10:36:57;;;;;;;4.78;3.10;;;;;;;11.19;71.74;100627.50;5048849;28;20025;-90
2021/12/08 10:39:34;;;;;;;4.13;2.75;;;;;;;11.32;71.34;100644.69;5032252;28;20079;-90
2021/12/08 10:42:03;;;;;;;;;;;;;;;11.39;71.19;100636.34;5032217;28;20021;-87
2021/12/08 10:44:31;;;;;;;4.45;3.25;;;;;;;11.27;71.68;100640.97;5041662;28;19989;-86
2021/12/08 10:46:58;;;;;;;4.80;3.00;;;;;;;11.10;71.79;100627.06;5037480;28;20036;-90
2021/12/08 10:54:39;;;;;;;5.03;3.55;;;;;;;11.21;71.57;100645.91;5047790;28;20051;-91
2021/12/08 10:57:38;;;;;;;7.32;3.83;;;;;;;11.13;71.85;100642.91;5045316;28;20482;-91
2021/12/08 11:00:11;;;;;;;5.30;3.50;;;;;;;10.95;71.88;100608.03;5049353;28;20041;-90
2021/12/08 11:02:43;;;;;;;6.85;3.95;;;;;;;10.82;72.03;100584.75;5029465;28;20123;-91
2021/12/08 11:05:24;;;;;;;6.50;4.30;;;;;;;11.16;72.11;100643.06;5050195;28;20029;-91
2021/12/08 11:08:46;;;;;;;8.35;4.18;;;;;;;11.14;72.12;100634.25;5047592;28;20049;-90
2021/12/08 11:11:25;;;;;;;6.20;4.10;;;;;;;10.99;72.15;100634.38;5046681;28;20103;-89
2021/12/08 11:14:03;;;;;;;6.13;4.15;;;;;;;10.77;72.30;100601.06;5047885;28;20526;-90
2021/12/08 11:16:31;;;;;;;6.50;4.30;;;;;;;10.93;72.69;100622.72;5042411;28;20127;-90
2021/12/08 11:19:19;;;;;;;7.45;4.43;;;;;;;11.04;72.26;100652.00;5043096;28;20033;-91
2021/12/08 11:22:06;;;;;;;6.40;3.95;;;;;;;10.80;72.23;100609.03;5036051;28;20036;-93
2021/12/08 11:24:45;;;;;;;8.20;4.18;;;;;;;11.11;72.15;100655.03;5025128;28;20171;-86
2021/12/08 11:27:33;;;;;;;7.57;4.28;;;;;;;11.06;72.29;100660.81;5031866;28;20034;-93
2021/12/08 11:30:13;;;;;;;5.60;3.90;;;;;;;10.83;72.15;100618.75;5032203;28;20025;-91
2021/12/08 11:32:39;;;;;;;6.88;4.10;;;;;;;10.83;72.99;100642.25;5030920;28;20076;-89
2021/12/08 11:35:05;;;;;;;9.88;4.18;;;;;;;10.90;73.27;100661.75;5013840;28;20745;-88
2021/12/08 11:37:35;;;;;;;6.60;4.18;;;;;;;10.97;73.14;100674.31;5055846;28;20071;-88
2021/12/08 11:40:20;;;;;;;8.02;4.43;;;;;;;11.12;71.84;100671.59;5033110;28;20036;-90
2021/12/08 11:42:50;;;;;;;9.15;4.40;;;;;;;11.05;72.07;100666.84;5033495;28;20033;-89
2021/12/08 11:45:19;;;;;;;8.00;4.20;;;;;;;11.04;72.04;100668.56;5030854;28;20128;-89
2021/12/08 11:47:48;;;;;;;8.93;4.28;;;;;;;10.81;72.13;100641.28;5048319;28;20033;-90
2021/12/08 11:50:16;;;;;;;6.53;4.13;;;;;;;10.80;72.19;100616.88;5049916;28;20129;-90
2021/12/08 11:52:42;;;;;;;6.38;4.03;;;;;;;11.00;72.44;100657.06;5050510;28;20033;-91
2021/12/08 11:55:21;;;;;;;7.85;4.00;;;;;;;11.03;72.16;100678.94;5035529;28;20033;-91
2021/12/08 11:57:58;;;;;;;6.75;3.80;;;;;;;11.01;72.31;100657.97;5038319;28;20033;-91
2021/12/08 12:00:30;;;;;;;5.93;3.88;;;;;;;10.97;72.61;100664.75;5034348;28;20036;-91
2021/12/08 12:03:01;;;;;;;6.57;4.03;;;;;;;10.93;73.11;100675.88;5043591;28;20037;-91
2021/12/08 12:05:47;;;;;;;7.05;4.20;;;;;;;10.49;72.92;100583.09;5055535;28;20039;-92
2021/12/08 12:08:16;;;;;;;9.85;4.53;;;;;;;10.65;72.82;100623.06;5054323;28;20687;-93
2021/12/08 12:10:53;;;;;;;7.60;3.97;;;;;;;10.98;72.92;100684.84;5037632;28;20033;-92
2021/12/08 12:13:26;;;;;;;5.78;3.70;;;;;;;11.01;72.75;100676.28;5033849;28;20508;-93
2021/12/08 12:15:56;;;;;;;7.88;4.25;;;;;;;11.00;72.47;100667.50;5036502;28;20464;-93
2021/12/08 12:18:32;;;;;;;8.13;4.22;;;;;;;11.02;72.36;100677.16;5046477;28;20469;-92
2021/12/08 12:21:26;;;;;;;8.07;4.00;;;;;;;10.86;73.01;100670.25;5037223;28;20556;-93
2021/12/08 12:24:21;;;;;;;6.22;4.15;;;;;;;10.71;73.00;100654.69;5050852;28;20060;-92
2021/12/08 12:27:24;;;;;;;6.07;4.00;;;;;;;10.97;72.54;100708.28;5049214;28;20080;-93
2021/12/08 12:30:13;;;;;;;6.03;4.05;;;;;;;11.02;72.34;100711.13;5052391;28;20090;-92
2021/12/08 12:32:54;;;;;;;6.93;4.75;;;;;;;10.98;72.52;100712.69;5054062;28;20036;-92
2021/12/08 12:35:40;;;;;;;6.35;4.60;;;;;;;11.13;71.58;100715.19;5039089;28;20109;-92
2021/12/08 12:38:08;;;;;;;5.47;3.92;;;;;;;10.96;72.13;100716.94;5045569;28;20022;-94
2021/12/08 12:44:16;;;;;;;7.25;4.18;;;;;;;10.94;72.44;100729.94;5050999;28;20040;-93
2021/12/08 12:47:37;;;;;;;6.75;4.07;;;;;;;10.87;73.01;100732.13;5041154;28;20089;-92
2021/12/08 12:50:25;;;;;;;7.18;4.38;;;;;;;10.89;73.00;100744.47;5054181;28;20067;-92
2021/12/08 12:52:56;;;;;;;6.28;4.13;;;;;;;10.78;72.86;100714.28;5053669;28;20037;-92
2021/12/08 12:55:44;;;;;;;7.80;4.63;;;;;;;10.86;73.23;100746.91;5029579;28;20021;-93
2021/12/08 12:58:49;;;;;;;6.35;4.10;;;;;;;10.89;73.29;100743.56;5049689;28;20021;-93
2021/12/08 13:01:42;;;;;;;6.95;4.68;;;;;;;10.84;73.32;100755.47;5016840;28;20560;-93
2021/12/08 13:04:25;;;;;;;6.15;4.13;;;;;;;10.83;73.52;100757.19;5041834;28;20037;-93
2021/12/08 13:07:02;;;;;;;9.00;4.47;;;;;;;10.48;73.33;100705.72;5039710;28;20033;-94
2021/12/08 13:09:42;;;;;;;7.45;4.65;;;;;;;10.36;72.88;100667.69;5044506;28;20123;-93
2021/12/08 13:12:08;;;;;;;9.20;5.07;;;;;;;10.85;72.98;100765.13;5068447;28;20575;-94
2021/12/08 13:15:27;;;;;;;8.18;4.78;;;;;;;10.79;73.43;100771.81;5053603;28;20116;-92
2021/12/08 13:18:11;;;;;;;7.03;4.57;;;;;;;10.75;73.47;100771.56;5044380;28;20076;-93
2021/12/08 13:20:41;;;;;;;6.80;4.63;;;;;;;10.59;73.38;100743.75;5050816;28;20029;-94